createdAt,value
2023-05-24T00:02:04.693Z,23.13
2023-05-24T00:05:10.064Z,23.23
2023-05-24T00:08:15.786Z,23.14
2023-05-24T00:11:21.995Z,23.10
2023-05-24T00:14:27.750Z,23.08
2023-05-24T00:17:36.510Z,23.04
2023-05-24T00:20:42.917Z,23.20
2023-05-24T00:23:51.133Z,22.87
2023-05-24T00:26:57.115Z,23.19
2023-05-24T00:30:02.305Z,23.36
2023-05-24T00:33:08.134Z,23.35
2023-05-24T00:36:13.957Z,23.32
2023-05-24T00:39:19.768Z,23.55
2023-05-24T00:42:26.287Z,23.52
2023-05-24T00:45:33.694Z,23.50
2023-05-24T00:48:39.471Z,23.23
2023-05-24T00:51:45.678Z,22.79
2023-05-24T00:54:50.997Z,22.21
2023-05-24T00:57:57.719Z,22.53
2023-05-24T01:01:05.542Z,22.70
2023-05-24T01:04:11.384Z,22.64
2023-05-24T01:07:45.532Z,22.91
2023-05-24T01:11:15.853Z,22.63
2023-05-24T01:14:37.745Z,22.67
2023-05-24T01:17:38.638Z,22.27
2023-05-24T01:20:47.667Z,22.23
2023-05-24T01:24:11.074Z,22.43
2023-05-24T01:27:23.997Z,22.28
2023-05-24T01:30:28.512Z,21.96
2023-05-24T01:33:33.977Z,21.96
2023-05-24T01:36:39.585Z,21.97
2023-05-24T01:39:45.193Z,21.89
2023-05-24T01:43:04.038Z,21.87
2023-05-24T01:46:40.563Z,21.75
2023-05-24T01:49:48.906Z,21.83
2023-05-24T01:52:56.018Z,22.02
2023-05-24T01:56:03.456Z,21.89
2023-05-24T01:59:09.066Z,21.95
2023-05-24T02:02:14.890Z,21.89
2023-05-24T02:05:21.453Z,21.88
2023-05-24T02:08:27.164Z,21.73
2023-05-24T02:11:31.948Z,21.75
2023-05-24T02:14:38.056Z,21.72
2023-05-24T02:17:44.371Z,21.83
2023-05-24T02:20:52.005Z,21.88
2023-05-24T02:23:57.785Z,21.88
2023-05-24T02:27:02.956Z,21.69
2023-05-24T02:30:09.110Z,21.60
2023-05-24T02:33:15.408Z,21.93
2023-05-24T02:36:21.531Z,22.30
2023-05-24T02:39:26.659Z,22.43
2023-05-24T02:42:32.546Z,22.17
2023-05-24T02:45:37.996Z,22.38
2023-05-24T02:48:36.906Z,22.64
2023-05-24T02:51:35.835Z,22.58
2023-05-24T02:54:41.360Z,22.86
2023-05-24T02:57:48.199Z,23.12
2023-05-24T03:00:55.288Z,23.36
2023-05-24T03:04:00.817Z,23.46
2023-05-24T03:07:06.936Z,23.55
2023-05-24T03:10:14.384Z,23.48
2023-05-24T03:13:18.653Z,23.67
2023-05-24T05:39:20.299Z,30.34
2023-05-24T05:42:26.402Z,30.28
2023-05-24T05:45:32.423Z,30.46
2023-05-24T05:48:38.403Z,30.29
2023-05-24T05:51:46.148Z,30.28
2023-05-24T05:54:54.745Z,30.20
2023-05-24T05:58:01.007Z,30.43
2023-05-24T06:01:07.845Z,30.40
2023-05-24T06:04:14.440Z,30.23
2023-05-24T06:07:20.854Z,30.14
2023-05-24T06:10:28.025Z,29.58
2023-05-24T06:13:34.866Z,29.68
2023-05-24T06:16:41.797Z,29.67
2023-05-24T06:19:40.423Z,29.35
2023-05-24T06:22:47.171Z,29.22
2023-05-24T06:25:53.606Z,29.48
2023-05-24T13:15:35.767Z,23.80
2023-05-24T13:18:41.610Z,23.83
2023-05-24T13:21:48.300Z,23.91
2023-05-24T13:24:54.231Z,23.87
2023-05-24T13:28:00.787Z,23.77
2023-05-24T13:31:07.387Z,24.04
2023-05-24T13:34:12.650Z,24.00
2023-05-24T13:37:18.280Z,24.25
2023-05-24T13:40:25.311Z,24.37
2023-05-24T13:43:31.860Z,24.63
2023-05-24T13:46:37.874Z,24.67
2023-05-24T13:49:44.508Z,24.57
2023-05-24T13:52:50.020Z,24.35
2023-05-24T13:55:56.482Z,24.25
2023-05-24T13:59:03.953Z,24.14
2023-05-24T14:02:09.538Z,23.99
2023-05-24T14:05:26.824Z,23.83
2023-05-24T14:08:22.392Z,23.83
2023-05-24T14:11:28.720Z,23.46
2023-05-24T14:17:36.258Z,23.59
2023-05-24T14:20:44.071Z,23.54
2023-05-24T14:23:51.183Z,23.47
2023-05-24T14:26:57.803Z,23.40
2023-05-24T14:30:03.442Z,23.39
2023-05-24T14:33:09.105Z,23.27
2023-05-24T14:36:15.581Z,23.39
2023-05-24T14:39:22.024Z,23.37
2023-05-24T14:42:27.656Z,23.28
2023-05-24T14:45:34.046Z,23.31
2023-05-24T14:48:33.948Z,23.60
2023-05-24T14:51:38.988Z,23.68
2023-05-24T14:54:45.620Z,23.74
2023-05-24T14:57:50.930Z,23.87
2023-05-24T15:00:57.266Z,23.89
2023-05-24T15:04:02.539Z,23.86
2023-05-24T15:07:07.275Z,23.77
2023-05-24T15:10:13.472Z,23.61
2023-05-24T15:13:20.536Z,23.72
2023-05-24T15:16:26.651Z,23.77
2023-05-24T15:19:32.963Z,23.80
2023-05-24T15:22:41.273Z,23.85
2023-05-24T15:25:47.582Z,23.77
2023-05-24T15:28:54.060Z,23.81
2023-05-24T15:32:00.662Z,23.81
2023-05-24T15:35:07.129Z,24.10
2023-05-24T15:38:13.479Z,24.30
2023-05-24T15:41:19.150Z,24.30
2023-05-24T15:44:25.601Z,24.40
2023-05-24T15:47:33.949Z,24.55
2023-05-24T15:53:51.308Z,24.40
2023-05-24T15:56:57.319Z,24.32
2023-05-24T16:00:04.269Z,24.54
2023-05-24T16:03:13.023Z,24.48
2023-05-24T16:06:19.242Z,24.15
2023-05-24T16:09:25.272Z,24.11
2023-05-24T16:12:33.020Z,24.05
2023-05-24T16:15:39.937Z,23.91
2023-05-24T16:18:45.838Z,23.78
2023-05-24T16:21:53.067Z,23.76
2023-05-24T16:24:59.909Z,23.63
2023-05-24T16:28:07.198Z,23.57
2023-05-24T16:31:12.771Z,23.57
2023-05-24T16:34:18.108Z,23.61
2023-05-24T16:37:24.208Z,23.60
2023-05-24T16:40:30.297Z,23.43
2023-05-24T16:43:36.622Z,23.36
2023-05-24T16:46:44.164Z,23.23
2023-05-24T16:49:50.070Z,23.30
2023-05-24T16:53:00.271Z,23.00
2023-05-24T16:56:07.191Z,22.78
2023-05-24T16:59:12.656Z,22.79
2023-05-24T17:02:18.576Z,22.70
2023-05-24T17:05:24.709Z,22.69
2023-05-24T17:08:33.175Z,22.53
2023-05-24T17:11:39.693Z,22.54
2023-05-24T17:14:44.889Z,22.49
2023-05-24T17:17:51.074Z,22.30
2023-05-24T17:20:57.937Z,22.28
2023-05-24T17:24:03.571Z,22.23
2023-05-24T17:27:11.314Z,22.02
2023-05-24T17:30:16.160Z,22.07
2023-05-24T17:33:23.327Z,21.96
2023-05-24T17:36:29.200Z,21.87
2023-05-24T17:39:34.042Z,21.80
2023-05-24T17:42:40.416Z,21.46
2023-05-24T17:45:45.814Z,21.26
2023-05-24T17:48:54.847Z,21.17
2023-05-24T17:52:01.396Z,21.28
2023-05-24T17:55:07.236Z,21.36
2023-05-24T17:58:12.536Z,21.30
2023-05-24T18:01:13.381Z,21.13
2023-05-24T18:04:18.831Z,21.13
2023-05-24T18:07:26.137Z,21.06
2023-05-24T18:10:32.393Z,21.05
2023-05-24T18:13:36.992Z,20.87
2023-05-24T18:16:41.853Z,20.86
2023-05-24T18:19:48.777Z,20.75
2023-05-24T18:22:55.198Z,20.63
2023-05-24T18:26:00.180Z,20.74
2023-05-24T18:29:03.500Z,20.78
2023-05-24T18:32:09.398Z,20.79
2023-05-24T18:35:14.349Z,20.76
2023-05-24T18:38:20.542Z,20.85
2023-05-24T18:41:25.846Z,20.68
2023-05-24T18:44:31.121Z,20.66
2023-05-24T18:47:38.335Z,20.57
2023-05-24T18:50:43.542Z,20.71
2023-05-24T18:53:48.891Z,20.33
2023-05-24T18:56:48.457Z,20.20
2023-05-24T18:59:55.258Z,20.15
2023-05-24T19:03:02.530Z,20.21
2023-05-24T19:06:08.553Z,20.04
2023-05-24T19:09:14.224Z,20.29
2023-05-24T19:12:19.474Z,20.19
2023-05-24T19:15:26.026Z,20.30
2023-05-24T19:18:32.007Z,20.32
2023-05-24T19:21:38.014Z,19.82
2023-05-24T19:24:42.244Z,19.86
2023-05-24T19:27:59.149Z,19.91
2023-05-24T19:30:55.689Z,19.72
2023-05-24T19:34:03.038Z,19.88
2023-05-24T19:37:08.430Z,19.67
2023-05-24T19:40:15.003Z,19.78
2023-05-24T19:43:22.027Z,19.85
2023-05-24T19:46:28.401Z,19.66
2023-05-24T19:49:33.381Z,19.55
2023-05-24T19:52:38.703Z,19.60
2023-05-24T19:55:45.218Z,19.77
2023-05-24T19:58:51.129Z,19.61
2023-05-24T20:01:58.736Z,19.62
2023-05-24T20:05:05.178Z,19.56
2023-05-24T20:08:11.841Z,19.69
2023-05-24T20:11:18.671Z,19.64
2023-05-24T20:14:25.320Z,19.76
2023-05-24T20:17:31.060Z,19.42
2023-05-24T20:20:37.554Z,19.50
2023-05-24T20:23:44.115Z,19.44
2023-05-24T20:26:51.293Z,19.49
2023-05-24T20:29:57.903Z,19.36
2023-05-24T20:33:03.856Z,19.22
2023-05-24T20:36:10.290Z,19.25
2023-05-24T20:39:15.693Z,19.38
2023-05-24T20:42:21.245Z,19.36
2023-05-24T20:45:26.800Z,19.32
2023-05-24T20:48:33.100Z,19.18
2023-05-24T20:51:39.008Z,19.27
2023-05-24T20:54:44.600Z,19.39
2023-05-24T20:57:52.186Z,19.22
2023-05-24T21:00:59.246Z,19.39
2023-05-24T21:04:04.683Z,19.32
2023-05-24T21:07:11.249Z,19.51
2023-05-24T21:10:16.059Z,19.25
2023-05-24T21:13:22.636Z,19.32
2023-05-24T21:16:29.641Z,19.41
2023-05-24T21:19:35.442Z,19.73
2023-05-24T21:22:41.071Z,19.73
2023-05-24T21:25:47.689Z,19.73
2023-05-24T21:28:53.230Z,19.63
2023-05-24T21:31:59.418Z,19.75
2023-05-24T21:35:05.447Z,19.87
2023-05-24T21:38:05.338Z,18.87
2023-05-24T21:41:12.428Z,18.92
2023-05-24T21:44:20.175Z,18.81
2023-05-24T21:47:25.104Z,18.83
2023-05-24T21:50:30.153Z,18.63
2023-05-24T21:53:35.667Z,18.61
2023-05-24T21:56:41.617Z,18.77
2023-05-24T21:59:47.186Z,18.80
2023-05-24T22:02:47.182Z,18.63
2023-05-24T22:05:52.508Z,18.51
2023-05-24T22:08:57.358Z,18.63
2023-05-24T22:12:03.098Z,18.39
2023-05-24T22:15:09.387Z,18.67
2023-05-24T22:18:16.088Z,18.74
2023-05-24T22:21:22.790Z,18.68
2023-05-24T22:24:28.198Z,18.60
2023-05-24T22:27:34.563Z,18.60
2023-05-24T22:30:42.209Z,18.86
2023-05-24T22:33:48.681Z,18.68
2023-05-24T22:36:54.975Z,18.72
2023-05-24T22:40:01.056Z,18.86
2023-05-24T22:43:08.179Z,18.27
2023-05-24T22:46:13.995Z,18.21
2023-05-24T22:49:21.528Z,18.46
2023-05-24T22:52:28.225Z,18.70
2023-05-24T22:55:33.904Z,18.74
2023-05-24T22:58:40.018Z,18.49
2023-05-24T23:01:46.267Z,18.54
2023-05-24T23:04:46.663Z,18.69
2023-05-24T23:07:55.050Z,18.72
2023-05-24T23:11:01.041Z,18.48
2023-05-24T23:14:07.503Z,18.27
2023-05-24T23:17:13.425Z,18.37
2023-05-24T23:20:21.272Z,18.49
2023-05-24T23:23:28.875Z,18.52
2023-05-24T23:26:34.962Z,18.83
2023-05-24T23:29:40.951Z,18.86
2023-05-24T23:32:47.340Z,18.90
2023-05-24T23:35:47.610Z,18.83
2023-05-24T23:38:55.031Z,18.59
2023-05-24T23:42:00.568Z,18.47
2023-05-24T23:45:05.960Z,18.44
2023-05-24T23:48:11.638Z,18.47
2023-05-24T23:51:17.442Z,18.82
2023-05-24T23:54:22.542Z,18.51
2023-05-24T23:57:30.151Z,18.50
